createdAt,value
2023-03-27T00:01:50.069Z,5.40
2023-03-27T00:06:05.553Z,4.60
2023-03-27T00:10:14.710Z,4.90
2023-03-27T00:14:22.663Z,4.70
2023-03-27T00:18:31.190Z,4.80
2023-03-27T00:22:39.785Z,5.20
2023-03-27T00:26:47.636Z,5.40
2023-03-27T00:30:56.217Z,4.90
2023-03-27T00:35:04.520Z,5.00
2023-03-27T00:39:12.720Z,5.50
2023-03-27T00:43:26.358Z,5.40
2023-03-27T00:47:36.102Z,5.70
2023-03-27T00:51:46.824Z,5.80
2023-03-27T00:55:57.416Z,5.10
2023-03-27T01:00:13.487Z,5.10
2023-03-27T01:04:22.155Z,4.60
2023-03-27T01:08:32.146Z,4.90
2023-03-27T01:12:48.515Z,5.80
2023-03-27T01:17:08.502Z,5.50
2023-03-27T01:21:48.555Z,5.40
2023-03-27T01:26:17.124Z,5.40
2023-03-27T01:30:49.212Z,4.90
2023-03-27T01:35:17.148Z,6.00
2023-03-27T01:39:35.982Z,5.70
2023-03-27T01:43:50.517Z,5.90
2023-03-27T01:48:02.086Z,4.90
2023-03-27T01:52:13.168Z,4.50
2023-03-27T01:56:26.934Z,5.00
2023-03-27T02:00:52.461Z,4.60
2023-03-27T02:05:04.900Z,5.80
2023-03-27T02:09:16.748Z,6.60
2023-03-27T02:13:27.761Z,5.90
2023-03-27T02:17:38.858Z,5.00
2023-03-27T02:21:48.256Z,4.90
2023-03-27T02:25:56.241Z,5.10
2023-03-27T02:30:10.874Z,5.60
2023-03-27T02:34:32.197Z,4.90
2023-03-27T02:38:44.370Z,4.70
2023-03-27T02:43:02.885Z,6.30
2023-03-27T02:47:12.635Z,6.60
2023-03-27T02:51:22.841Z,8.50
2023-03-27T02:55:35.313Z,9.90
2023-03-27T02:59:45.930Z,10.40
2023-03-27T03:04:01.666Z,10.90
2023-03-27T03:08:10.927Z,9.50
2023-03-27T03:12:21.152Z,8.30
2023-03-27T03:16:30.671Z,8.70
2023-03-27T03:20:40.145Z,5.50
2023-03-27T03:24:47.755Z,3.10
2023-03-27T03:29:00.947Z,3.00
2023-03-27T03:33:12.240Z,3.90
2023-03-27T03:37:28.799Z,3.50
2023-03-27T03:41:36.375Z,3.60
2023-03-27T03:45:44.388Z,2.70
2023-03-27T03:49:52.129Z,3.20
2023-03-27T03:54:01.622Z,3.80
2023-03-27T03:58:09.713Z,2.90
2023-03-27T04:02:28.419Z,2.80
2023-03-27T04:06:37.854Z,2.10
2023-03-27T04:10:45.489Z,1.80
2023-03-27T04:14:53.156Z,2.20
2023-03-27T04:19:01.282Z,1.40
2023-03-27T04:23:10.900Z,1.70
2023-03-27T04:27:19.414Z,1.70
2023-03-27T04:31:28.840Z,2.10
2023-03-27T04:35:36.674Z,1.80
2023-03-27T04:39:46.579Z,2.60
2023-03-27T04:44:10.129Z,2.70
2023-03-27T04:48:18.057Z,2.40
2023-03-27T04:52:29.855Z,3.30
2023-03-27T04:56:45.865Z,3.00
2023-03-27T05:00:56.787Z,2.70
2023-03-27T05:05:09.200Z,2.30
2023-03-27T05:09:24.427Z,3.00
2023-03-27T05:13:40.171Z,1.80
2023-03-27T05:17:55.344Z,2.00
2023-03-27T05:22:03.149Z,2.00
2023-03-27T05:26:19.429Z,1.90
2023-03-27T05:30:32.508Z,1.90
2023-03-27T05:34:46.030Z,2.00
2023-03-27T05:38:58.315Z,1.50
2023-03-27T05:43:09.944Z,2.10
2023-03-27T05:47:27.354Z,2.50
2023-03-27T05:51:37.598Z,2.00
2023-03-27T05:56:02.385Z,1.30
2023-03-27T06:00:24.171Z,1.70
2023-03-27T06:04:37.264Z,1.40
2023-03-27T06:08:49.991Z,1.50
2023-03-27T06:13:05.262Z,1.40
2023-03-27T06:17:13.182Z,1.10
2023-03-27T06:21:21.098Z,1.90
2023-03-27T06:25:32.363Z,1.30
2023-03-27T06:29:44.352Z,1.30
2023-03-27T06:33:53.571Z,1.80
2023-03-27T06:38:04.424Z,3.50
2023-03-27T06:42:18.962Z,3.60
2023-03-27T06:46:35.289Z,1.80
2023-03-27T06:50:54.732Z,2.20
2023-03-27T06:55:03.317Z,3.10
2023-03-27T06:59:11.296Z,3.30
2023-03-27T07:03:19.367Z,2.80
2023-03-27T07:07:27.506Z,2.20
2023-03-27T07:11:36.535Z,2.50
2023-03-27T07:15:44.420Z,2.10
2023-03-27T07:19:52.051Z,2.80
2023-03-27T07:24:00.615Z,4.10
2023-03-27T07:28:10.364Z,4.00
2023-03-27T07:32:26.037Z,2.40
2023-03-27T07:36:44.947Z,3.00
2023-03-27T07:40:52.143Z,2.80
2023-03-27T07:45:02.808Z,2.90
2023-03-27T07:49:14.322Z,2.60
2023-03-27T07:53:33.828Z,3.20
2023-03-27T07:57:59.705Z,3.30
2023-03-27T08:02:16.753Z,2.70
2023-03-27T08:06:26.247Z,2.90
2023-03-27T08:10:34.273Z,2.90
2023-03-27T08:14:41.797Z,2.60
2023-03-27T08:18:50.469Z,3.20
2023-03-27T08:22:58.764Z,2.90
2023-03-27T08:27:07.425Z,2.90
2023-03-27T08:31:18.876Z,3.60
2023-03-27T08:35:28.225Z,2.80
2023-03-27T08:39:35.849Z,2.00
2023-03-27T08:43:46.249Z,2.40
2023-03-27T08:47:58.297Z,1.80
2023-03-27T08:52:10.340Z,2.30
2023-03-27T08:56:18.930Z,1.90
2023-03-27T09:00:34.194Z,2.60
2023-03-27T09:04:47.013Z,2.70
2023-03-27T09:09:01.154Z,2.50
2023-03-27T09:13:15.530Z,2.10
2023-03-27T09:17:27.264Z,1.70
2023-03-27T09:21:42.085Z,2.20
2023-03-27T09:25:52.721Z,1.90
2023-03-27T09:30:17.329Z,2.00
2023-03-27T09:34:27.766Z,1.50
2023-03-27T09:38:38.726Z,2.10
2023-03-27T09:42:48.648Z,2.20
2023-03-27T09:46:59.671Z,1.70
2023-03-27T09:51:08.407Z,1.30
2023-03-27T09:55:27.209Z,1.20
2023-03-27T09:59:38.882Z,1.50
2023-03-27T10:03:56.031Z,1.50
2023-03-27T10:08:29.531Z,1.70
2023-03-27T10:12:39.327Z,1.90
2023-03-27T10:16:48.552Z,2.60
2023-03-27T10:20:58.616Z,2.80
2023-03-27T10:25:19.634Z,2.90
2023-03-27T10:29:30.308Z,2.00
2023-03-27T10:33:41.392Z,2.20
2023-03-27T10:37:51.750Z,2.20
2023-03-27T10:41:59.609Z,1.60
2023-03-27T10:46:10.129Z,1.80
2023-03-27T10:50:23.089Z,1.80
2023-03-27T10:54:39.949Z,1.80
2023-03-27T10:58:51.516Z,1.90
2023-03-27T11:03:03.571Z,1.70
2023-03-27T11:07:18.368Z,1.70
2023-03-27T11:11:30.042Z,1.50
2023-03-27T11:15:42.432Z,1.80
2023-03-27T11:19:54.758Z,1.80
2023-03-27T11:24:06.876Z,1.80
2023-03-27T11:28:22.981Z,1.60
2023-03-27T11:32:37.082Z,1.50
2023-03-27T11:36:48.798Z,1.60
2023-03-27T11:40:58.843Z,1.20
2023-03-27T11:45:09.605Z,1.30
2023-03-27T11:49:30.312Z,1.30
2023-03-27T11:53:57.066Z,1.30
2023-03-27T11:58:15.169Z,1.30
2023-03-27T12:02:53.243Z,1.10
2023-03-27T12:07:26.282Z,1.30
2023-03-27T12:11:45.998Z,1.00
2023-03-27T12:16:16.401Z,1.30
2023-03-27T12:20:52.990Z,1.10
2023-03-27T12:25:27.314Z,1.30
2023-03-27T12:29:52.097Z,0.90
2023-03-27T12:34:06.785Z,1.10
2023-03-27T12:38:20.291Z,1.00
2023-03-27T12:42:52.580Z,1.00
2023-03-27T12:47:22.001Z,1.10
2023-03-27T12:52:04.620Z,0.90
2023-03-27T12:56:40.104Z,0.90
2023-03-27T13:01:00.862Z,1.00
2023-03-27T13:05:51.626Z,0.90
2023-03-27T13:10:12.550Z,1.30
2023-03-27T13:14:49.654Z,1.00
2023-03-27T13:19:05.661Z,1.00
2023-03-27T13:23:34.007Z,1.00
2023-03-27T13:27:51.044Z,0.90
2023-03-27T13:32:07.379Z,0.80
2023-03-27T13:36:23.418Z,1.00
2023-03-27T13:40:41.395Z,1.00
2023-03-27T13:45:02.013Z,0.80
2023-03-27T13:49:21.167Z,1.00
2023-03-27T13:53:56.839Z,0.90
2023-03-27T13:58:25.237Z,0.80
2023-03-27T14:02:53.151Z,1.00
2023-03-27T14:07:34.962Z,1.10
2023-03-27T14:11:55.621Z,1.20
2023-03-27T14:16:35.764Z,1.00
2023-03-27T14:20:45.558Z,0.80
2023-03-27T14:25:00.211Z,0.90
2023-03-27T14:29:08.881Z,1.00
2023-03-27T14:33:23.382Z,1.20
2023-03-27T14:37:32.882Z,0.80
2023-03-27T14:41:49.006Z,1.00
2023-03-27T14:46:00.173Z,0.80
2023-03-27T14:50:14.168Z,1.00
2023-03-27T14:54:29.157Z,1.00
2023-03-27T14:58:37.825Z,1.30
2023-03-27T15:02:48.132Z,1.00
2023-03-27T15:06:56.933Z,1.00
2023-03-27T15:11:07.956Z,1.30
2023-03-27T15:15:28.191Z,1.30
2023-03-27T15:19:45.877Z,1.10
2023-03-27T15:24:00.963Z,1.10
2023-03-27T15:28:11.831Z,1.10
2023-03-27T15:32:22.330Z,1.60
2023-03-27T15:36:33.331Z,1.20
2023-03-27T15:40:43.270Z,1.20
2023-03-27T15:44:51.288Z,1.20
2023-03-27T15:48:59.277Z,0.90
2023-03-27T15:53:07.548Z,1.00
2023-03-27T15:57:18.694Z,1.20
2023-03-27T16:01:32.482Z,1.00
2023-03-27T16:05:44.932Z,0.80
2023-03-27T16:09:56.218Z,1.00
2023-03-27T16:14:04.882Z,1.10
2023-03-27T16:18:21.961Z,1.30
2023-03-27T16:22:32.238Z,1.20
2023-03-27T16:26:39.824Z,1.20
2023-03-27T16:30:48.697Z,1.10
2023-03-27T16:34:57.426Z,1.00
2023-03-27T16:39:07.971Z,1.20
2023-03-27T16:43:16.491Z,1.50
2023-03-27T16:47:26.287Z,1.10
2023-03-27T16:51:36.354Z,0.90
2023-03-27T16:55:45.042Z,1.10
2023-03-27T16:59:53.118Z,1.50
2023-03-27T17:04:01.620Z,1.10
2023-03-27T17:08:10.111Z,1.40
2023-03-27T17:12:18.041Z,1.70
2023-03-27T17:16:27.340Z,1.20
2023-03-27T17:20:35.592Z,1.10
2023-03-27T17:24:55.283Z,1.60
2023-03-27T17:29:06.396Z,1.60
2023-03-27T17:33:17.337Z,1.50
2023-03-27T17:37:26.178Z,1.70
2023-03-27T17:41:35.013Z,1.90
2023-03-27T17:45:44.591Z,1.90
2023-03-27T17:49:53.461Z,1.60
2023-03-27T17:54:01.887Z,1.60
2023-03-27T17:58:12.259Z,1.80
2023-03-27T18:02:22.220Z,3.30
2023-03-27T18:06:30.910Z,5.30
2023-03-27T18:10:39.657Z,4.70
2023-03-27T18:14:48.463Z,3.80
2023-03-27T18:18:57.686Z,3.30
2023-03-27T18:23:06.314Z,3.20
2023-03-27T18:27:14.184Z,2.60
2023-03-27T18:31:22.368Z,3.30
2023-03-27T18:35:33.945Z,2.90
2023-03-27T18:39:43.992Z,2.90
2023-03-27T18:43:52.063Z,4.00
2023-03-27T18:48:00.337Z,7.40
2023-03-27T18:52:10.093Z,8.40
2023-03-27T18:56:19.118Z,7.00
2023-03-27T19:00:27.600Z,6.20
2023-03-27T19:04:35.746Z,5.50
2023-03-27T19:08:45.711Z,5.40
2023-03-27T19:12:54.023Z,5.80
2023-03-27T19:17:03.546Z,4.50
2023-03-27T19:21:14.454Z,3.60
2023-03-27T19:25:23.392Z,3.30
2023-03-27T19:29:32.740Z,2.50
2023-03-27T19:33:43.400Z,2.90
2023-03-27T19:37:51.498Z,2.90
2023-03-27T19:41:59.926Z,3.70
2023-03-27T19:46:16.486Z,4.50
2023-03-27T19:50:26.014Z,5.30
2023-03-27T19:54:34.223Z,5.40
2023-03-27T19:58:42.111Z,5.20
2023-03-27T20:02:52.805Z,5.00
2023-03-27T20:07:02.170Z,4.00
2023-03-27T20:11:10.353Z,4.40
2023-03-27T20:15:19.183Z,4.70
2023-03-27T20:19:30.471Z,5.10
2023-03-27T20:23:42.347Z,4.80
2023-03-27T20:27:50.802Z,4.20
2023-03-27T20:31:59.681Z,3.90
2023-03-27T20:36:08.004Z,5.90
2023-03-27T20:40:16.860Z,5.30
2023-03-27T20:44:35.342Z,4.80
2023-03-27T20:48:54.108Z,5.50
2023-03-27T20:53:04.899Z,5.90
2023-03-27T20:57:13.581Z,5.70
2023-03-27T21:01:28.110Z,4.00
2023-03-27T21:05:38.640Z,4.20
2023-03-27T21:09:46.619Z,2.80
2023-03-27T21:13:55.323Z,3.20
2023-03-27T21:18:03.550Z,4.90
2023-03-27T21:22:11.931Z,5.30
2023-03-27T21:26:21.379Z,4.00
2023-03-27T21:30:47.111Z,3.60
2023-03-27T21:34:56.819Z,3.00
2023-03-27T21:39:05.023Z,2.60
2023-03-27T21:43:14.429Z,2.90
2023-03-27T21:47:22.383Z,2.60
2023-03-27T21:51:29.944Z,2.90
2023-03-27T21:55:38.942Z,2.90
2023-03-27T21:59:47.078Z,2.70
2023-03-27T22:03:59.987Z,2.30
2023-03-27T22:08:10.523Z,2.40
2023-03-27T22:12:18.458Z,2.10
2023-03-27T22:16:26.305Z,1.70
2023-03-27T22:20:34.422Z,1.70
2023-03-27T22:24:43.101Z,2.10
2023-03-27T22:28:52.775Z,2.60
2023-03-27T22:33:01.448Z,2.20
2023-03-27T22:37:11.629Z,2.10
2023-03-27T22:41:19.782Z,2.00
2023-03-27T22:45:27.951Z,1.80
2023-03-27T22:49:36.969Z,2.10
2023-03-27T22:53:45.170Z,1.70
2023-03-27T22:57:53.394Z,1.80
2023-03-27T23:02:03.718Z,3.00
2023-03-27T23:06:19.839Z,3.20
2023-03-27T23:10:28.168Z,3.40
2023-03-27T23:14:35.840Z,2.10
2023-03-27T23:18:43.621Z,1.80
2023-03-27T23:22:52.044Z,1.70
2023-03-27T23:26:59.861Z,2.20
2023-03-27T23:31:09.358Z,1.90
2023-03-27T23:35:16.994Z,2.20
2023-03-27T23:39:25.217Z,2.90
2023-03-27T23:43:34.079Z,1.40
2023-03-27T23:47:42.460Z,2.40
2023-03-27T23:51:50.624Z,2.00
2023-03-27T23:56:00.281Z,1.90
